Time;durP1;ratioP1;P1;durP2;ratioP2;P2;SDS_P1;SDS_P2;PMS_P1;PMS_P2;Temp;Humidity;BMP_temperature;BMP_pressure;BME280_temperature;BME280_humidity;BME280_pressure;Samples;Min_cycle;Max_cycle;Signal;HPM_P1;HPM_P2
2022/06/19 00:00:40;;;;;;;3.10;1.40;;;17.40;1.00;;;;;;5034968;28;20304;-53
2022/06/19 00:03:14;;;;;;;8.43;2.00;;;17.40;1.00;;;;;;5047703;28;20237;-51
2022/06/19 00:05:41;;;;;;;10.13;1.90;;;17.40;1.00;;;;;;5049242;28;20298;-55
2022/06/19 00:08:08;;;;;;;6.40;2.07;;;17.30;1.00;;;;;;5051757;28;20249;-55
2022/06/19 00:10:35;;;;;;;8.37;1.60;;;17.20;1.00;;;;;;5050361;28;20213;-55
2022/06/19 00:13:02;;;;;;;4.50;1.43;;;17.40;1.00;;;;;;5044328;28;20203;-56
2022/06/19 00:15:29;;;;;;;6.37;1.50;;;17.30;1.00;;;;;;5061821;28;20269;-56
2022/06/19 00:17:56;;;;;;;9.93;2.80;;;17.30;1.00;;;;;;5027970;28;20659;-55
2022/06/19 00:20:23;;;;;;;8.77;1.73;;;17.20;1.00;;;;;;5048934;28;20220;-57
2022/06/19 00:22:50;;;;;;;4.30;1.67;;;17.20;1.00;;;;;;5046758;28;20195;-55
2022/06/19 00:25:17;;;;;;;10.17;1.80;;;17.00;1.00;;;;;;5048471;28;20706;-56
2022/06/19 00:27:44;;;;;;;5.70;2.10;;;17.00;1.00;;;;;;5048709;28;20978;-55
2022/06/19 00:30:13;;;;;;;7.17;1.50;;;16.90;1.00;;;;;;5044969;28;20207;-55
2022/06/19 00:32:40;;;;;;;6.37;2.20;;;16.80;1.00;;;;;;5040674;28;20223;-55
2022/06/19 00:35:08;;;;;;;4.47;1.53;;;16.90;1.00;;;;;;5047261;28;20322;-56
2022/06/19 00:37:36;;;;;;;6.00;1.47;;;17.00;1.00;;;;;;5051885;28;20221;-55
2022/06/19 00:40:07;;;;;;;6.63;1.73;;;16.80;1.00;;;;;;5047022;28;20222;-55
2022/06/19 00:42:34;;;;;;;8.40;1.80;;;17.00;1.00;;;;;;5034003;28;20207;-55
2022/06/19 00:45:02;;;;;;;5.57;1.63;;;16.90;1.00;;;;;;5050088;28;20207;-55
2022/06/19 00:47:35;;;;;;;6.37;1.60;;;16.70;1.00;;;;;;5048479;28;20995;-55
2022/06/19 00:50:19;;;;;;;6.20;1.80;;;16.60;1.00;;;;;;5048190;28;20200;-54
2022/06/19 00:52:46;;;;;;;5.10;1.57;;;16.70;1.00;;;;;;5046168;28;20655;-54
2022/06/19 00:55:30;;;;;;;4.50;1.33;;;16.70;1.00;;;;;;5048393;28;20238;-55
2022/06/19 00:58:07;;;;;;;5.00;2.60;;;16.70;1.00;;;;;;5046239;28;20821;-54
2022/06/19 01:00:36;;;;;;;8.03;2.17;;;16.70;1.00;;;;;;5047385;28;20409;-54
2022/06/19 01:03:19;;;;;;;7.97;1.80;;;16.70;1.00;;;;;;5050716;28;20253;-55
2022/06/19 01:05:49;;;;;;;4.37;1.53;;;16.80;1.00;;;;;;5044789;28;20208;-55
2022/06/19 01:08:16;;;;;;;6.03;1.70;;;16.60;1.00;;;;;;5049906;28;20289;-55
2022/06/19 01:10:46;;;;;;;10.47;1.83;;;16.60;1.00;;;;;;5046006;28;20213;-56
2022/06/19 01:13:16;;;;;;;10.33;2.00;;;16.80;1.00;;;;;;5048175;28;20211;-54
2022/06/19 01:15:44;;;;;;;5.00;1.33;;;17.10;1.00;;;;;;5045261;28;20227;-56
2022/06/19 01:18:12;;;;;;;3.83;1.30;;;16.80;1.00;;;;;;5056274;28;20265;-55
2022/06/19 01:20:44;;;;;;;7.27;1.63;;;16.80;1.00;;;;;;5046544;28;20220;-55
2022/06/19 01:23:36;;;;;;;11.07;1.70;;;16.60;1.00;;;;;;5050298;28;20206;-55
2022/06/19 01:26:04;;;;;;;7.57;2.00;;;16.70;1.00;;;;;;5051092;28;20210;-55
2022/06/19 01:28:55;;;;;;;6.77;1.30;;;16.60;1.00;;;;;;5032946;28;20260;-56
2022/06/19 01:31:32;;;;;;;4.10;1.50;;;16.40;1.00;;;;;;5049094;28;20794;-59
2022/06/19 01:36:57;;;;;;;7.97;1.97;;;16.40;1.00;;;;;;5051452;28;20556;-56
2022/06/19 01:39:26;;;;;;;7.40;1.90;;;16.60;1.00;;;;;;5051717;28;20270;-53
2022/06/19 01:41:53;;;;;;;6.33;1.70;;;16.50;1.00;;;;;;5055234;28;20230;-56
2022/06/19 01:44:24;;;;;;;7.60;2.23;;;16.30;1.00;;;;;;5052509;28;20219;-55
2022/06/19 01:46:52;;;;;;;9.60;1.70;;;16.30;1.00;;;;;;5055047;28;20226;-56
2022/06/19 01:49:22;;;;;;;6.57;1.80;;;16.30;1.00;;;;;;5038288;28;20665;-56
2022/06/19 01:51:53;;;;;;;6.73;1.30;;;16.50;1.00;;;;;;5053862;28;20725;-56
2022/06/19 01:54:28;;;;;;;7.80;1.63;;;16.80;1.00;;;;;;5056539;28;20555;-55
2022/06/19 01:56:57;;;;;;;7.93;2.20;;;16.60;1.00;;;;;;5051976;28;20195;-55
2022/06/19 01:59:31;;;;;;;9.30;1.70;;;16.60;1.00;;;;;;5053176;28;20222;-58
2022/06/19 02:02:02;;;;;;;3.23;1.30;;;16.50;1.00;;;;;;5046027;28;20821;-55
2022/06/19 02:04:31;;;;;;;8.73;1.60;;;16.70;1.00;;;;;;5053818;28;20671;-55
2022/06/19 02:07:03;;;;;;;4.23;1.23;;;16.90;1.00;;;;;;5047944;28;20199;-56
2022/06/19 02:09:30;;;;;;;7.67;2.33;;;16.90;1.00;;;;;;5054652;28;20217;-56
2022/06/19 02:11:58;;;;;;;3.63;1.63;;;16.80;1.00;;;;;;5049594;28;20596;-55
2022/06/19 02:14:26;;;;;;;5.57;1.30;;;16.90;1.00;;;;;;5054356;28;20204;-55
2022/06/19 02:16:53;;;;;;;4.53;0.83;;;16.70;1.00;;;;;;5051107;28;20207;-55
2022/06/19 02:19:20;;;;;;;5.33;1.07;;;16.50;1.00;;;;;;5051432;28;20768;-56
2022/06/19 02:21:52;;;;;;;9.37;1.63;;;16.50;1.00;;;;;;5052492;28;20276;-55
2022/06/19 02:24:23;;;;;;;4.63;1.40;;;16.50;99.90;;;;;;5054165;28;20204;-55
2022/06/19 02:26:51;;;;;;;4.33;1.20;;;16.70;99.90;;;;;;5039392;28;20200;-56
2022/06/19 02:29:20;;;;;;;5.97;1.50;;;16.80;99.90;;;;;;5049158;28;20288;-56
2022/06/19 02:31:56;;;;;;;6.73;1.70;;;16.60;99.90;;;;;;5048997;28;20203;-55
2022/06/19 02:34:29;;;;;;;6.07;1.30;;;16.40;1.00;;;;;;5048826;28;20204;-56
2022/06/19 02:36:59;;;;;;;7.73;0.93;;;16.40;99.90;;;;;;5044601;28;20273;-56
2022/06/19 02:39:26;;;;;;;8.73;1.20;;;16.40;1.00;;;;;;5066424;28;20303;-57
2022/06/19 02:42:26;;;;;;;2.43;1.23;;;16.50;99.90;;;;;;5046960;28;20660;-57
2022/06/19 02:45:27;;;;;;;3.77;0.97;;;16.40;99.90;;;;;;5054799;28;20195;-56
2022/06/19 02:47:57;;;;;;;8.73;1.00;;;16.40;99.90;;;;;;5011684;28;20280;-53
2022/06/19 02:50:33;;;;;;;4.33;1.13;;;16.40;99.90;;;;;;5052297;28;20273;-55
2022/06/19 02:53:00;;;;;;;3.10;1.03;;;16.30;99.90;;;;;;5048215;28;20230;-55
2022/06/19 02:55:28;;;;;;;4.77;1.13;;;16.40;99.90;;;;;;5056224;28;20266;-55
2022/06/19 02:57:55;;;;;;;4.67;1.00;;;16.60;99.90;;;;;;5050652;28;20265;-54
2022/06/19 03:00:26;;;;;;;2.00;0.73;;;16.70;99.90;;;;;;5052206;28;20687;-54
2022/06/19 03:03:00;;;;;;;4.20;0.83;;;16.60;99.90;;;;;;5048755;28;20199;-54
2022/06/19 03:05:28;;;;;;;6.47;1.00;;;16.50;99.90;;;;;;5056840;28;20649;-54
2022/06/19 03:07:56;;;;;;;5.70;1.10;;;16.70;99.90;;;;;;5047657;28;20217;-54
2022/06/19 03:10:23;;;;;;;1.50;0.67;;;16.40;1.00;;;;;;5054455;28;20210;-55
2022/06/19 03:12:50;;;;;;;4.80;1.00;;;16.40;1.00;;;;;;5049797;28;20238;-54
2022/06/19 03:15:17;;;;;;;3.93;1.40;;;16.30;1.00;;;;;;5054380;28;20583;-56
2022/06/19 03:17:45;;;;;;;4.27;0.70;;;16.30;1.00;;;;;;5053472;28;20222;-55
2022/06/19 03:20:15;;;;;;;6.57;0.80;;;16.30;1.00;;;;;;5054093;28;20223;-56
2022/06/19 03:22:42;;;;;;;4.00;1.10;;;16.20;1.00;;;;;;5066672;28;20275;-57
2022/06/19 03:25:10;;;;;;;4.33;0.77;;;16.20;1.00;;;;;;5052526;28;20203;-55
2022/06/19 03:27:37;;;;;;;1.63;0.67;;;16.20;1.00;;;;;;5033062;28;20208;-55
2022/06/19 03:30:05;;;;;;;3.37;0.87;;;16.10;1.00;;;;;;5050608;28;20291;-55
2022/06/19 03:32:32;;;;;;;3.40;0.90;;;16.20;1.00;;;;;;5049861;28;20270;-55
2022/06/19 03:34:59;;;;;;;1.73;0.60;;;16.10;1.00;;;;;;5051669;28;20599;-55
2022/06/19 03:37:26;;;;;;;3.07;0.80;;;16.10;99.90;;;;;;5048837;28;20237;-56
2022/06/19 03:39:55;;;;;;;3.37;0.77;;;15.90;1.00;;;;;;5048632;28;20218;-55
2022/06/19 03:42:22;;;;;;;6.43;1.10;;;15.90;99.90;;;;;;5052111;28;20218;-56
2022/06/19 03:44:49;;;;;;;2.10;0.63;;;16.00;99.90;;;;;;5064314;28;20199;-56
2022/06/19 03:47:22;;;;;;;3.40;1.13;;;16.00;99.90;;;;;;5052200;28;20203;-55
2022/06/19 03:49:51;;;;;;;5.50;0.80;;;16.20;99.90;;;;;;5049899;28;20621;-55
2022/06/19 03:52:17;;;;;;;2.33;1.10;;;16.10;99.90;;;;;;5050930;28;20477;-53
2022/06/19 03:54:45;;;;;;;2.37;1.23;;;16.10;99.90;;;;;;5036571;28;20616;-56
2022/06/19 03:57:12;;;;;;;3.87;0.93;;;16.10;99.90;;;;;;5049294;28;20211;-57
2022/06/19 03:59:39;;;;;;;2.20;0.57;;;16.10;99.90;;;;;;5049576;28;20295;-55
2022/06/19 04:02:08;;;;;;;8.37;0.97;;;16.00;99.90;;;;;;5043302;28;20316;-54
2022/06/19 04:04:39;;;;;;;6.57;0.97;;;16.00;99.90;;;;;;5049292;28;20567;-55
2022/06/19 04:07:09;;;;;;;3.60;0.87;;;16.10;99.90;;;;;;5051001;28;20210;-55
2022/06/19 04:09:37;;;;;;;4.63;1.50;;;16.00;99.90;;;;;;5051088;28;20267;-55
2022/06/19 04:12:05;;;;;;;9.03;1.37;;;16.10;99.90;;;;;;5046590;28;20606;-56
2022/06/19 04:14:32;;;;;;;7.63;1.03;;;16.10;99.90;;;;;;5051556;28;20210;-54
2022/06/19 04:16:59;;;;;;;5.33;1.00;;;16.10;99.90;;;;;;5052033;28;20259;-55
2022/06/19 04:19:27;;;;;;;5.77;0.87;;;16.20;99.90;;;;;;5052324;28;20228;-55
2022/06/19 04:21:54;;;;;;;2.83;0.97;;;16.10;99.90;;;;;;5048731;28;20232;-54
2022/06/19 04:24:21;;;;;;;3.20;0.90;;;16.10;99.90;;;;;;5052237;28;20306;-55
2022/06/19 04:26:51;;;;;;;3.07;0.90;;;16.10;99.90;;;;;;5050552;28;20200;-55
2022/06/19 04:29:18;;;;;;;5.77;1.40;;;16.10;99.90;;;;;;5052350;28;20199;-55
2022/06/19 04:31:45;;;;;;;4.47;1.63;;;16.00;99.90;;;;;;5048130;28;20208;-54
2022/06/19 04:34:12;;;;;;;6.77;1.00;;;16.00;99.90;;;;;;5051177;28;20350;-55
2022/06/19 04:36:39;;;;;;;6.20;1.30;;;16.00;99.90;;;;;;5044220;28;20688;-54
2022/06/19 04:39:06;;;;;;;8.07;2.37;;;16.10;99.90;;;;;;5050550;28;20194;-54
2022/06/19 04:41:37;;;;;;;6.27;1.00;;;16.10;99.90;;;;;;5047043;28;20225;-54
2022/06/19 04:44:07;;;;;;;4.60;0.80;;;16.20;99.90;;;;;;5055202;28;20311;-57
2022/06/19 04:46:35;;;;;;;3.87;0.97;;;16.30;99.90;;;;;;5044228;28;20236;-55
2022/06/19 04:49:02;;;;;;;4.10;1.00;;;16.20;99.90;;;;;;5053658;28;20220;-56
2022/06/19 04:51:35;;;;;;;6.93;1.90;;;16.30;99.90;;;;;;5042316;28;21706;-55
2022/06/19 04:54:05;;;;;;;6.83;1.43;;;16.30;99.90;;;;;;5054425;28;20568;-55
2022/06/19 04:56:33;;;;;;;8.50;1.40;;;16.30;1.00;;;;;;5046614;28;20247;-55
2022/06/19 04:59:00;;;;;;;6.90;1.50;;;16.50;99.90;;;;;;5056622;28;20667;-54
2022/06/19 05:01:37;;;;;;;3.53;0.83;;;16.50;99.90;;;;;;5041642;28;20762;-55
2022/06/19 05:04:08;;;;;;;4.57;0.90;;;16.60;1.00;;;;;;5044369;28;20201;-55
2022/06/19 05:06:35;;;;;;;5.60;0.97;;;16.60;99.90;;;;;;5048015;28;20287;-56
2022/06/19 05:09:02;;;;;;;5.43;0.93;;;16.70;99.90;;;;;;5049699;28;20252;-54
2022/06/19 05:11:31;;;;;;;6.60;1.17;;;16.80;99.90;;;;;;5045895;28;20207;-58
2022/06/19 05:13:58;;;;;;;4.50;1.10;;;16.80;99.90;;;;;;5048859;28;20222;-55
2022/06/19 05:16:26;;;;;;;4.63;1.30;;;16.80;1.00;;;;;;5048222;28;20213;-54
2022/06/19 05:18:55;;;;;;;2.23;1.20;;;16.90;99.90;;;;;;5048005;28;20216;-54
2022/06/19 05:21:24;;;;;;;7.33;1.00;;;16.70;99.90;;;;;;5044773;28;20227;-56
2022/06/19 05:23:53;;;;;;;6.37;1.30;;;16.70;1.00;;;;;;5048634;28;20297;-55
2022/06/19 05:26:29;;;;;;;2.13;0.90;;;17.10;1.00;;;;;;5042268;28;20253;-54
2022/06/19 05:28:57;;;;;;;8.27;1.20;;;17.20;99.90;;;;;;5049256;28;20295;-53
2022/06/19 05:31:25;;;;;;;4.33;1.17;;;17.10;1.00;;;;;;5038061;28;20204;-51
2022/06/19 05:33:52;;;;;;;4.47;1.27;;;17.00;1.00;;;;;;5050346;28;20199;-51
2022/06/19 05:36:22;;;;;;;8.07;1.47;;;16.80;1.00;;;;;;5052360;28;20676;-50
2022/06/19 05:38:50;;;;;;;9.67;1.90;;;16.90;1.00;;;;;;5047557;28;20631;-51
2022/06/19 05:41:18;;;;;;;7.87;1.13;;;17.00;1.00;;;;;;5045220;28;20222;-51
2022/06/19 05:43:48;;;;;;;5.27;1.00;;;17.20;1.00;;;;;;5047842;28;20640;-50
2022/06/19 05:46:18;;;;;;;4.77;1.30;;;17.20;99.90;;;;;;5046720;28;20975;-50
2022/06/19 05:48:45;;;;;;;5.30;1.00;;;17.50;1.00;;;;;;5048769;28;20226;-51
2022/06/19 05:51:21;;;;;;;2.37;0.93;;;17.70;1.00;;;;;;5034975;28;20554;-52
2022/06/19 05:53:57;;;;;;;5.57;1.03;;;17.80;99.90;;;;;;5053924;28;20243;-53
2022/06/19 05:56:26;;;;;;;4.97;1.00;;;17.70;99.90;;;;;;5046653;28;20600;-51
2022/06/19 05:58:53;;;;;;;6.93;1.00;;;17.50;99.90;;;;;;5051970;28;20212;-51
2022/06/19 06:01:22;;;;;;;2.90;1.20;;;17.60;99.90;;;;;;5047369;28;20322;-51
2022/06/19 06:03:49;;;;;;;6.00;0.90;;;17.60;99.90;;;;;;5049614;28;20734;-52
2022/06/19 06:06:22;;;;;;;3.63;1.07;;;17.80;99.90;;;;;;5045410;28;20773;-52
2022/06/19 06:08:50;;;;;;;3.03;0.60;;;17.80;99.90;;;;;;5045625;28;20237;-51
2022/06/19 06:11:18;;;;;;;3.90;0.80;;;17.80;99.90;;;;;;5045132;28;20292;-53
2022/06/19 06:13:45;;;;;;;4.50;1.10;;;17.70;1.00;;;;;;5047029;28;20303;-50
2022/06/19 06:16:14;;;;;;;5.50;0.87;;;17.60;14.60;;;;;;5049245;28;20566;-52
2022/06/19 06:18:42;;;;;;;1.97;0.87;;;17.60;1.00;;;;;;5046754;28;20606;-53
2022/06/19 06:21:17;;;;;;;2.43;0.83;;;17.80;1.00;;;;;;5052727;28;20749;-55
2022/06/19 06:23:44;;;;;;;1.90;0.70;;;18.10;1.00;;;;;;5052227;28;20209;-55
2022/06/19 06:26:14;;;;;;;7.30;1.10;;;18.00;1.00;;;;;;5051903;28;20754;-54
2022/06/19 06:28:44;;;;;;;4.03;1.10;;;17.80;99.90;;;;;;5048924;28;20223;-55
2022/06/19 06:31:12;;;;;;;3.80;1.07;;;17.70;99.90;;;;;;5048366;28;20660;-55
2022/06/19 06:33:39;;;;;;;4.60;1.10;;;17.50;99.90;;;;;;5050961;28;20661;-55
2022/06/19 06:36:07;;;;;;;5.13;1.03;;;17.40;1.00;;;;;;5049696;28;20204;-55
2022/06/19 06:38:34;;;;;;;4.53;1.03;;;17.30;1.00;;;;;;5053223;28;20277;-54
2022/06/19 06:41:05;;;;;;;4.23;0.83;;;17.20;1.00;;;;;;5052282;28;20220;-53
2022/06/19 06:43:34;;;;;;;3.63;1.30;;;17.30;1.00;;;;;;5052158;28;20215;-54
2022/06/19 06:46:13;;;;;;;5.17;0.87;;;17.20;1.00;;;;;;5047531;28;20240;-55
2022/06/19 06:48:42;;;;;;;5.43;1.43;;;16.90;1.00;;;;;;5054640;28;22836;-55
2022/06/19 06:51:10;;;;;;;5.90;1.10;;;16.70;1.00;;;;;;5048095;28;20207;-55
2022/06/19 06:53:37;;;;;;;6.93;1.13;;;16.90;1.00;;;;;;5051708;28;20214;-54
2022/06/19 06:56:05;;;;;;;3.97;1.13;;;17.00;1.00;;;;;;5055246;28;20242;-55
2022/06/19 06:58:32;;;;;;;2.53;0.90;;;17.10;1.00;;;;;;5049933;28;20208;-55
2022/06/19 07:01:13;;;;;;;5.53;1.37;;;17.00;1.00;;;;;;5048827;28;20309;-55
2022/06/19 07:03:41;;;;;;;4.20;0.93;;;17.10;1.00;;;;;;5045961;28;20275;-54
2022/06/19 07:06:09;;;;;;;4.57;1.17;;;17.10;1.00;;;;;;5051415;28;20600;-54
2022/06/19 07:08:36;;;;;;;5.93;1.10;;;16.90;1.00;;;;;;5048269;28;21628;-54
2022/06/19 07:11:03;;;;;;;5.53;1.63;;;16.80;1.00;;;;;;5049819;28;20204;-55
2022/06/19 07:13:30;;;;;;;4.07;0.90;;;16.70;1.00;;;;;;5048445;28;20206;-55
2022/06/19 07:15:57;;;;;;;8.47;1.83;;;16.70;1.00;;;;;;5049813;28;20206;-55
2022/06/19 07:18:24;;;;;;;6.73;1.20;;;16.70;1.00;;;;;;5050752;28;20192;-55
2022/06/19 07:20:51;;;;;;;7.27;1.40;;;16.70;1.00;;;;;;5040755;28;20310;-54
2022/06/19 07:23:18;;;;;;;5.70;1.73;;;16.50;48.00;;;;;;5051052;28;20575;-55
2022/06/19 07:25:46;;;;;;;8.13;2.20;;;16.60;23.00;;;;;;5054250;28;20599;-55
2022/06/19 07:28:15;;;;;;;6.63;1.30;;;16.20;48.00;;;;;;5051046;28;20187;-55
2022/06/19 07:30:43;;;;;;;6.33;1.20;;;16.20;1.00;;;;;;5040350;28;20230;-55
2022/06/19 07:33:12;;;;;;;8.17;1.40;;;16.40;96.70;;;;;;5039611;28;20222;-55
2022/06/19 07:35:42;;;;;;;5.67;1.20;;;16.40;35.80;;;;;;5046527;28;20689;-53
2022/06/19 07:38:09;;;;;;;5.63;1.50;;;16.60;47.90;;;;;;5061566;28;20204;-54
2022/06/19 07:40:36;;;;;;;8.73;1.80;;;16.30;87.20;;;;;;5048645;28;20207;-54
2022/06/19 07:43:06;;;;;;;5.13;1.57;;;16.40;99.90;;;;;;5047726;28;20298;-53
2022/06/19 07:45:33;;;;;;;7.40;1.63;;;16.20;99.90;;;;;;5053988;28;20729;-55
2022/06/19 07:50:49;;;;;;;4.70;1.50;;;15.70;99.90;;;;;;5046174;28;20630;-55
2022/06/19 07:53:16;;;;;;;6.57;1.63;;;15.70;99.90;;;;;;5048495;28;20222;-51
2022/06/19 07:55:43;;;;;;;7.77;1.87;;;15.50;99.90;;;;;;5053797;28;20307;-51
2022/06/19 07:58:10;;;;;;;13.33;2.13;;;15.40;99.90;;;;;;5049163;28;20207;-51
2022/06/19 08:00:37;;;;;;;7.03;1.70;;;15.20;99.90;;;;;;5048433;28;20754;-51
2022/06/19 08:03:05;;;;;;;5.13;1.37;;;15.00;99.90;;;;;;5049393;28;20252;-52
2022/06/19 08:05:35;;;;;;;10.13;2.07;;;15.10;99.90;;;;;;5049151;28;20222;-51
2022/06/19 08:08:09;;;;;;;7.60;2.17;;;15.40;99.90;;;;;;5035431;28;20195;-51
2022/06/19 08:10:38;;;;;;;6.77;1.77;;;15.40;99.90;;;;;;5045351;28;20257;-52
2022/06/19 08:13:12;;;;;;;11.43;1.80;;;15.70;99.90;;;;;;5039175;28;20243;-53
2022/06/19 08:15:40;;;;;;;11.50;2.30;;;15.70;99.90;;;;;;5042062;28;20713;-51
2022/06/19 08:18:09;;;;;;;8.57;2.33;;;15.60;99.90;;;;;;5039845;28;20459;-51
2022/06/19 08:20:36;;;;;;;8.73;2.17;;;15.60;99.90;;;;;;5036711;28;20209;-49
2022/06/19 08:23:05;;;;;;;6.87;1.90;;;15.90;99.90;;;;;;5046673;28;20305;-55
2022/06/19 08:25:33;;;;;;;7.93;1.70;;;16.00;99.90;;;;;;5049835;28;20265;-55
2022/06/19 08:28:01;;;;;;;6.53;1.30;;;16.10;99.90;;;;;;5050830;28;20618;-56
2022/06/19 08:30:31;;;;;;;6.50;2.03;;;15.80;99.90;;;;;;5046226;28;20539;-56
2022/06/19 08:33:02;;;;;;;6.90;1.90;;;15.40;99.90;;;;;;5042123;28;20199;-58
2022/06/19 08:35:32;;;;;;;10.47;1.77;;;15.40;99.90;;;;;;5046678;28;20755;-55
2022/06/19 08:38:04;;;;;;;5.80;2.23;;;15.40;99.90;;;;;;5051192;28;20283;-55
2022/06/19 08:40:43;;;;;;;8.40;1.80;;;15.40;99.90;;;;;;5045332;28;20529;-53
2022/06/19 08:43:51;;;;;;;5.97;1.47;;;15.40;99.90;;;;;;5035474;28;20482;-53
2022/06/19 08:46:27;;;;;;;7.87;1.73;;;15.30;99.90;;;;;;5031280;28;20283;-55
2022/06/19 08:49:13;;;;;;;7.50;1.33;;;15.40;99.90;;;;;;5046193;28;20298;-55
2022/06/19 08:51:49;;;;;;;5.40;1.40;;;15.80;99.90;;;;;;5046506;28;20233;-55
2022/06/19 08:54:45;;;;;;;5.70;1.40;;;15.80;99.90;;;;;;5043626;28;20666;-54
2022/06/19 08:57:24;;;;;;;8.20;1.77;;;15.80;99.90;;;;;;5043479;28;20845;-55
2022/06/19 09:00:06;;;;;;;5.50;1.73;;;15.70;99.90;;;;;;5039741;28;20561;-55
2022/06/19 09:02:51;;;;;;;5.70;1.50;;;16.00;99.90;;;;;;5043984;28;20629;-54
2022/06/19 09:05:45;;;;;;;6.43;2.07;;;16.30;99.90;;;;;;5063112;28;20204;-55
2022/06/19 09:08:49;;;;;;;8.17;1.80;;;16.70;99.90;;;;;;5049572;28;20202;-55
2022/06/19 09:11:39;;;;;;;6.70;1.40;;;16.30;99.90;;;;;;5044459;28;20233;-55
2022/06/19 09:14:30;;;;;;;5.10;1.10;;;16.10;99.90;;;;;;5038227;28;20210;-55
2022/06/19 09:17:04;;;;;;;5.23;1.73;;;15.90;66.70;;;;;;5041545;28;20203;-55
2022/06/19 09:19:48;;;;;;;7.20;1.47;;;16.00;99.90;;;;;;5042508;28;20659;-55
2022/06/19 09:22:38;;;;;;;6.57;1.63;;;16.30;99.90;;;;;;5041185;28;21159;-56
2022/06/19 09:25:20;;;;;;;5.63;1.23;;;16.80;1.00;;;;;;5045639;28;20302;-55
2022/06/19 09:27:56;;;;;;;4.70;1.00;;;16.60;1.00;;;;;;5038508;28;20302;-55
2022/06/19 09:30:30;;;;;;;2.03;1.03;;;17.10;1.00;;;;;;5038965;28;20224;-56
2022/06/19 09:33:15;;;;;;;5.50;1.67;;;16.90;1.00;;;;;;5039227;28;20736;-56
2022/06/19 09:35:48;;;;;;;3.77;1.20;;;17.20;1.00;;;;;;5045297;28;20270;-56
2022/06/19 09:38:26;;;;;;;5.87;1.20;;;17.30;1.00;;;;;;5044632;28;20624;-56
2022/06/19 09:40:57;;;;;;;3.73;1.00;;;17.30;1.00;;;;;;5049133;28;20272;-56
2022/06/19 09:43:43;;;;;;;5.30;1.03;;;17.20;1.00;;;;;;5048685;28;20268;-56
2022/06/19 09:46:20;;;;;;;3.43;1.13;;;17.20;1.00;;;;;;5047957;28;20207;-58
2022/06/19 09:49:02;;;;;;;4.40;1.30;;;16.70;1.00;;;;;;5044671;28;20349;-56
2022/06/19 09:51:49;;;;;;;5.00;2.53;;;16.70;1.00;;;;;;5040565;28;20256;-55
2022/06/19 09:54:31;;;;;;;5.03;0.83;;;16.70;1.00;;;;;;5047328;28;20208;-56
2022/06/19 09:57:11;;;;;;;2.87;1.07;;;16.90;1.00;;;;;;5038822;28;20214;-57
2022/06/19 09:59:41;;;;;;;5.27;1.23;;;17.00;1.00;;;;;;5041589;28;20468;-55
2022/06/19 10:02:42;;;;;;;4.43;1.57;;;17.30;1.00;;;;;;5046621;28;20222;-56
2022/06/19 10:05:24;;;;;;;2.07;1.17;;;17.40;1.00;;;;;;5053390;28;20242;-55
2022/06/19 10:07:56;;;;;;;3.20;0.90;;;17.80;1.00;;;;;;5047055;28;20204;-54
2022/06/19 10:10:41;;;;;;;2.97;1.30;;;17.90;1.00;;;;;;5041777;28;20212;-56
2022/06/19 10:13:31;;;;;;;3.23;1.03;;;17.80;1.00;;;;;;5042041;28;20219;-55
2022/06/19 10:16:01;;;;;;;6.40;1.87;;;17.90;1.00;;;;;;5044977;28;20655;-55
2022/06/19 10:18:34;;;;;;;2.77;1.20;;;17.80;1.00;;;;;;5057587;28;20211;-56
2022/06/19 10:22:13;;;;;;;2.50;1.20;;;18.00;1.00;;;;;;5056785;28;20270;-55
2022/06/19 10:24:14;;;;;;;3.37;1.10;;;18.40;1.00;;;;;;5056853;28;20311;-55
2022/06/19 10:26:46;;;;;;;8.43;1.67;;;18.80;1.00;;;;;;5041422;28;20815;-55
2022/06/19 10:29:23;;;;;;;4.40;1.23;;;18.50;1.00;;;;;;5039430;28;20221;-54
2022/06/19 10:32:16;;;;;;;5.70;1.80;;;18.60;1.00;;;;;;5039328;28;20207;-54
2022/06/19 10:35:00;;;;;;;3.23;1.17;;;18.40;1.00;;;;;;5055273;28;20219;-55
2022/06/19 10:37:39;;;;;;;6.53;1.57;;;18.70;1.00;;;;;;5055164;28;20467;-56
2022/06/19 10:40:21;;;;;;;9.43;1.60;;;18.40;1.00;;;;;;5056794;28;20208;-55
2022/06/19 10:43:10;;;;;;;4.37;1.40;;;18.30;1.00;;;;;;5058482;28;20685;-55
2022/06/19 10:45:45;;;;;;;7.77;1.87;;;18.20;1.00;;;;;;5059058;28;20219;-55
2022/06/19 10:48:32;;;;;;;6.87;1.63;;;18.50;1.00;;;;;;5058773;28;20285;-54
2022/06/19 10:51:17;;;;;;;5.47;1.40;;;18.60;1.00;;;;;;5057240;28;20218;-54
2022/06/19 10:53:50;;;;;;;4.13;1.30;;;18.70;1.00;;;;;;5058866;28;20210;-53
2022/06/19 10:56:47;;;;;;;7.30;1.40;;;18.40;1.00;;;;;;5057046;28;20247;-55
2022/06/19 10:59:15;;;;;;;3.90;2.37;;;18.40;1.00;;;;;;5056980;28;20635;-54
2022/06/19 11:05:02;;;;;;;4.70;2.00;;;18.40;1.00;;;;;;5059971;28;20196;-54
2022/06/19 11:07:30;;;;;;;5.10;1.70;;;18.60;1.00;;;;;;5057075;28;20266;-55
2022/06/19 11:10:17;;;;;;;2.67;1.30;;;18.70;1.00;;;;;;5056968;28;20569;-54
2022/06/19 11:12:56;;;;;;;6.07;1.57;;;18.30;1.00;;;;;;5056094;28;20202;-59
2022/06/19 11:15:31;;;;;;;3.53;1.47;;;18.40;1.00;;;;;;5058183;28;20207;-56
2022/06/19 11:18:13;;;;;;;7.00;1.80;;;18.70;1.00;;;;;;5055132;28;20199;-54
2022/06/19 11:21:03;;;;;;;4.07;1.43;;;18.50;1.00;;;;;;5057565;28;20373;-54
2022/06/19 11:24:01;;;;;;;5.97;1.40;;;18.20;1.00;;;;;;5058829;28;20229;-55
2022/06/19 11:26:43;;;;;;;7.03;1.57;;;18.30;1.00;;;;;;5034528;28;20208;-55
2022/06/19 11:29:19;;;;;;;7.20;1.70;;;17.90;33.10;;;;;;5055175;28;20218;-55
2022/06/19 11:32:13;;;;;;;3.27;1.37;;;18.10;17.00;;;;;;5041618;28;20214;-54
2022/06/19 11:34:44;;;;;;;2.30;1.27;;;17.60;78.50;;;;;;5055407;28;20284;-55
2022/06/19 11:37:33;;;;;;;5.63;1.70;;;17.60;83.10;;;;;;5052483;28;20319;-54
2022/06/19 11:40:00;;;;;;;4.80;1.40;;;17.80;32.40;;;;;;5041254;28;20218;-54
2022/06/19 11:42:38;;;;;;;3.80;1.20;;;18.00;14.80;;;;;;5053379;28;20288;-55
2022/06/19 11:45:15;;;;;;;6.27;2.00;;;18.00;1.00;;;;;;5055059;28;20211;-54
2022/06/19 11:47:55;;;;;;;10.63;1.93;;;18.20;1.00;;;;;;5058319;28;20308;-54
2022/06/19 11:50:35;;;;;;;7.13;1.70;;;18.50;1.00;;;;;;5055133;28;20208;-54
2022/06/19 11:53:08;;;;;;;6.50;1.70;;;18.70;1.00;;;;;;5055948;28;20306;-54
2022/06/19 11:56:06;;;;;;;6.83;2.53;;;18.50;1.00;;;;;;5055550;28;20235;-56
2022/06/19 11:58:43;;;;;;;7.27;1.90;;;18.30;1.00;;;;;;5016026;28;20690;-55
2022/06/19 12:01:21;;;;;;;6.27;1.80;;;18.20;1.00;;;;;;5054767;28;20610;-55
2022/06/19 12:04:00;;;;;;;5.90;1.60;;;18.30;1.00;;;;;;5056954;28;20259;-55
2022/06/19 12:06:45;;;;;;;8.37;1.60;;;18.30;1.00;;;;;;5056652;28;20566;-55
2022/06/19 12:09:40;;;;;;;7.43;1.70;;;18.40;1.00;;;;;;5055194;28;20221;-55
2022/06/19 12:12:10;;;;;;;7.40;1.43;;;18.10;1.00;;;;;;5056423;28;20222;-56
2022/06/19 12:14:46;;;;;;;4.23;1.50;;;18.10;1.00;;;;;;5039964;28;20210;-54
2022/06/19 12:17:15;;;;;;;6.40;1.90;;;18.30;1.00;;;;;;5055686;28;20698;-55
2022/06/19 12:19:58;;;;;;;4.27;1.60;;;18.30;1.00;;;;;;5055208;28;20710;-55
2022/06/19 12:23:07;;;;;;;7.37;1.50;;;18.50;1.00;;;;;;5055789;28;20227;-54
2022/06/19 12:25:53;;;;;;;7.17;1.70;;;17.90;1.00;;;;;;5042053;28;20839;-56
2022/06/19 12:28:22;;;;;;;6.70;1.70;;;17.60;23.90;;;;;;5055669;28;20247;-54
2022/06/19 12:31:01;;;;;;;9.77;1.77;;;17.70;9.30;;;;;;5054340;28;20589;-55
2022/06/19 12:33:52;;;;;;;5.73;1.63;;;17.80;1.00;;;;;;5055876;28;20216;-55
2022/06/19 12:36:32;;;;;;;10.33;1.87;;;17.90;1.00;;;;;;5053630;28;20264;-55
2022/06/19 12:38:59;;;;;;;7.03;1.63;;;17.80;1.00;;;;;;5030704;28;20234;-55
2022/06/19 12:41:34;;;;;;;6.37;1.47;;;17.80;1.00;;;;;;5054729;28;20639;-55
2022/06/19 12:44:10;;;;;;;4.53;1.30;;;17.80;1.00;;;;;;5051445;28;20601;-55
2022/06/19 12:46:42;;;;;;;5.37;1.70;;;17.80;1.00;;;;;;5053838;28;20661;-60
2022/06/19 12:49:18;;;;;;;7.47;1.70;;;17.90;1.00;;;;;;5053946;28;20238;-55
2022/06/19 12:51:54;;;;;;;7.23;1.47;;;17.50;1.00;;;;;;5054111;28;20198;-53
2022/06/19 12:54:40;;;;;;;7.87;1.77;;;17.60;1.00;;;;;;5053903;28;20202;-55
2022/06/19 12:57:34;;;;;;;5.57;1.57;;;17.80;1.00;;;;;;5039353;28;20240;-56
2022/06/19 13:00:31;;;;;;;3.73;1.70;;;17.90;1.00;;;;;;5053842;28;20279;-57
2022/06/19 13:03:13;;;;;;;4.53;1.63;;;17.90;1.00;;;;;;5055457;28;20266;-54
2022/06/19 13:06:01;;;;;;;2.93;1.00;;;17.70;1.00;;;;;;5057632;28;20204;-56
2022/06/19 13:08:54;;;;;;;4.67;1.40;;;18.00;1.00;;;;;;5039801;28;20207;-56
2022/06/19 13:11:43;;;;;;;4.60;1.33;;;17.80;1.00;;;;;;5053989;28;20209;-55
2022/06/19 13:14:32;;;;;;;4.87;1.40;;;17.80;1.00;;;;;;5055817;28;20234;-56
2022/06/19 13:17:19;;;;;;;3.53;1.40;;;17.90;1.00;;;;;;5039473;28;20659;-55
2022/06/19 13:20:24;;;;;;;6.17;1.63;;;17.80;1.00;;;;;;5039956;28;20628;-54
2022/06/19 13:23:06;;;;;;;3.17;1.60;;;17.80;1.00;;;;;;5054589;28;20256;-54
2022/06/19 13:25:48;;;;;;;6.17;2.10;;;18.00;1.00;;;;;;5054552;28;20241;-55
2022/06/19 13:28:31;;;;;;;4.63;1.10;;;17.90;1.00;;;;;;5055521;28;20623;-54
2022/06/19 13:31:36;;;;;;;4.27;1.40;;;17.80;1.00;;;;;;5053492;28;20627;-54
2022/06/19 13:34:45;;;;;;;5.87;1.37;;;17.90;1.00;;;;;;5053019;28;20203;-55
2022/06/19 13:37:55;;;;;;;5.10;1.13;;;17.80;1.00;;;;;;5052475;28;20198;-55